Time;durP1;ratioP1;P1;durP2;ratioP2;P2;SDS_P1;SDS_P2;PMS_P1;PMS_P2;Temp;Humidity;BMP_temperature;BMP_pressure;BME280_temperature;BME280_humidity;BME280_pressure;Samples;Min_cycle;Max_cycle;Signal;HPM_P1;HPM_P2
2021/09/16 00:01:33;;;;;;;;;6.00;5.00;;;;;20.57;59.68;101331.03;5048858;28;45742;-84
2021/09/16 00:03:59;;;;;;;;;5.50;4.00;;;;;20.54;59.41;101328.38;5041116;28;45307;-83
2021/09/16 00:06:24;;;;;;;;;7.00;5.00;;;;;20.55;59.33;101336.25;5038494;28;45357;-83
2021/09/16 00:08:50;;;;;;;;;5.00;5.00;;;;;20.54;59.78;101338.88;5037524;28;45310;-84
2021/09/16 00:11:16;;;;;;;;;6.25;5.00;;;;;20.54;59.82;101329.22;5038070;28;45220;-83
2021/09/16 00:13:41;;;;;;;;;7.50;6.00;;;;;20.55;59.31;101328.38;5037540;28;45454;-83
2021/09/16 00:16:07;;;;;;;;;6.00;5.75;;;;;20.55;59.70;101327.50;5053722;28;45408;-82
2021/09/16 00:18:33;;;;;;;;;6.00;5.00;;;;;20.52;59.45;101328.31;5036875;28;47527;-83
2021/09/16 00:20:58;;;;;;;;;7.25;4.50;;;;;20.50;59.75;101335.34;5038225;28;45318;-83
2021/09/16 00:23:24;;;;;;;;;5.50;4.75;;;;;20.47;59.87;101337.94;5037984;28;45334;-83
2021/09/16 00:25:50;;;;;;;;;7.00;5.75;;;;;20.45;59.62;101330.91;5037867;28;45321;-83
2021/09/16 00:28:15;;;;;;;;;5.00;4.75;;;;;20.47;59.88;101342.28;5037854;28;46489;-83
2021/09/16 00:30:41;;;;;;;;;7.50;6.25;;;;;20.44;59.76;101337.00;5037536;28;45350;-83
2021/09/16 00:33:07;;;;;;;;;9.00;7.75;;;;;20.42;59.56;101340.50;5037920;28;45445;-84
2021/09/16 00:35:33;;;;;;;;;9.75;8.25;;;;;20.40;59.58;101339.59;5037737;28;45264;-83
2021/09/16 00:37:58;;;;;;;;;4.50;4.00;;;;;20.35;60.10;101341.31;5037614;28;45959;-84
2021/09/16 00:40:24;;;;;;;;;6.75;5.00;;;;;20.34;60.16;101347.41;5037512;28;45354;-83
2021/09/16 00:42:49;;;;;;;;;6.00;6.00;;;;;20.32;59.68;101349.16;5037038;28;45310;-83
2021/09/16 00:45:15;;;;;;;;;6.00;5.25;;;;;20.32;60.13;101357.03;5037538;28;45259;-83
2021/09/16 00:47:46;;;;;;;;;7.25;6.00;;;;;20.31;60.46;101351.72;5052685;28;45448;-83
2021/09/16 00:50:24;;;;;;;;;6.75;6.00;;;;;20.26;60.36;101346.41;5037526;28;45794;-82
2021/09/16 00:52:51;;;;;;;;;7.50;6.50;;;;;20.27;59.94;101356.06;5037121;28;45835;-83
2021/09/16 00:55:17;;;;;;;;;8.00;7.25;;;;;20.25;60.38;101366.56;5037750;28;45210;-82
2021/09/16 00:57:50;;;;;;;;;6.25;6.00;;;;;20.24;59.85;101359.56;5037050;28;45386;-83
2021/09/16 01:00:17;;;;;;;;;9.50;7.00;;;;;20.22;60.09;101361.28;5036841;28;45370;-82
2021/09/16 01:02:42;;;;;;;;;8.00;6.00;;;;;20.21;60.33;101361.25;5037118;28;45401;-82
2021/09/16 01:05:08;;;;;;;;;8.00;8.00;;;;;20.19;60.10;101353.31;5037647;28;45623;-83
2021/09/16 01:07:37;;;;;;;;;5.75;4.25;;;;;20.17;60.78;101359.44;5037005;28;47207;-82
2021/09/16 01:10:05;;;;;;;;;5.50;5.00;;;;;20.11;60.48;101352.34;5052425;28;45699;-83
2021/09/16 01:12:30;;;;;;;;;5.25;4.00;;;;;20.08;61.06;101361.09;5037527;28;45354;-82
2021/09/16 01:14:56;;;;;;;;;3.75;3.75;;;;;20.10;60.77;101367.25;5037010;28;45656;-82
2021/09/16 01:17:22;;;;;;;;;9.25;8.75;;;;;20.06;61.11;101364.56;5036874;28;45360;-82
2021/09/16 01:19:48;;;;;;;;;6.75;5.00;;;;;20.05;60.66;101368.03;5036756;28;45334;-82
2021/09/16 01:22:21;;;;;;;;;7.00;7.00;;;;;20.02;60.76;101366.25;5037067;28;45434;-82
2021/09/16 01:24:47;;;;;;;;;6.75;4.75;;;;;20.02;60.58;101373.25;5037154;28;45639;-83
2021/09/16 01:27:13;;;;;;;;;7.25;7.25;;;;;19.98;60.84;101377.59;5036715;28;45529;-82
2021/09/16 01:29:39;;;;;;;;;6.00;6.00;;;;;19.94;61.37;101375.75;5036449;28;45468;-82
2021/09/16 01:32:06;;;;;;;;;4.75;4.75;;;;;19.91;61.44;101378.34;5036502;28;45348;-83
2021/09/16 01:34:33;;;;;;;;;5.50;5.50;;;;;19.87;61.17;101379.16;5037593;28;45541;-82
2021/09/16 01:36:59;;;;;;;;;6.75;6.75;;;;;19.80;62.07;101380.78;5036916;28;45926;-83
2021/09/16 01:39:25;;;;;;;;;7.00;5.75;;;;;19.78;61.80;101383.38;5036560;28;45397;-82
2021/09/16 01:41:53;;;;;;;;;9.00;7.75;;;;;19.79;62.41;101386.88;5051941;28;45486;-83
2021/09/16 01:44:19;;;;;;;;;8.00;8.00;;;;;19.78;62.17;101390.38;5037063;28;45516;-82
2021/09/16 01:46:45;;;;;;;;;8.75;8.00;;;;;19.77;61.73;101391.22;5042137;28;45275;-83
2021/09/16 01:49:11;;;;;;;;;10.25;8.00;;;;;19.73;61.89;101387.66;5039383;28;45374;-82
2021/09/16 01:51:36;;;;;;;;;8.75;8.00;;;;;19.72;61.96;101393.78;5036500;28;45407;-82
2021/09/16 01:54:05;;;;;;;;;7.75;6.50;;;;;19.63;62.29;101389.28;5038119;28;45939;-82
2021/09/16 01:56:30;;;;;;;;;8.25;8.25;;;;;19.52;61.94;101393.47;5035860;28;45436;-82
2021/09/16 01:58:56;;;;;;;;;8.00;7.75;;;;;19.47;62.63;101390.75;5036242;28;45346;-82
2021/09/16 02:01:22;;;;;;;;;9.00;7.50;;;;;19.46;62.60;101393.34;5036856;28;45237;-82
2021/09/16 02:03:48;;;;;;;;;10.00;7.75;;;;;19.45;62.87;101395.09;5036372;28;45508;-83
2021/09/16 02:06:14;;;;;;;;;8.75;8.00;;;;;19.44;62.64;101395.06;5031764;28;45293;-83
2021/09/16 02:08:40;;;;;;;;;8.50;8.50;;;;;19.43;62.70;101396.81;5036169;28;45650;-83
2021/09/16 02:11:06;;;;;;;;;9.00;8.25;;;;;19.42;62.89;101399.41;5036226;28;45378;-83
2021/09/16 02:13:32;;;;;;;;;7.00;7.00;;;;;19.40;62.76;101401.13;5036767;28;45616;-83
2021/09/16 02:15:57;;;;;;;;;8.75;6.00;;;;;19.39;63.08;101396.72;5035765;28;45997;-83
2021/09/16 02:18:23;;;;;;;;;8.00;6.75;;;;;19.42;62.59;101397.66;5051546;28;45335;-83
2021/09/16 02:20:49;;;;;;;;;8.50;6.50;;;;;19.45;62.72;101405.59;5035683;28;45231;-83
2021/09/16 02:23:14;;;;;;;;;7.00;6.50;;;;;19.45;62.87;101396.81;5051899;28;45477;-83
2021/09/16 02:25:40;;;;;;;;;7.25;7.25;;;;;19.45;62.57;101402.06;5035539;28;46077;-83
2021/09/16 02:28:05;;;;;;;;;7.75;5.75;;;;;19.46;62.96;101409.09;5036013;28;45225;-85
2021/09/16 02:30:31;;;;;;;;;6.00;5.00;;;;;19.40;62.26;101393.25;5036221;28;45317;-83
2021/09/16 02:32:57;;;;;;;;;8.50;6.25;;;;;19.42;62.79;101400.28;5036066;28;45641;-83
2021/09/16 02:35:23;;;;;;;;;7.75;6.50;;;;;19.44;62.38;101406.47;5036040;28;45417;-83
2021/09/16 02:37:48;;;;;;;;;7.50;7.50;;;;;19.45;63.01;101412.56;5035495;28;45591;-83
2021/09/16 02:40:14;;;;;;;;;7.50;6.25;;;;;19.43;62.56;101404.69;5035951;28;45399;-82
2021/09/16 02:42:40;;;;;;;;;12.25;9.00;;;;;19.45;62.81;101409.94;5035862;28;45523;-83
2021/09/16 02:45:07;;;;;;;;;8.25;7.50;;;;;19.41;62.89;101406.38;5035638;28;46087;-83
2021/09/16 02:47:33;;;;;;;;;5.75;5.75;;;;;19.39;63.10;101399.34;5035514;28;45619;-83
2021/09/16 02:49:59;;;;;;;;;8.00;8.00;;;;;19.42;62.41;101407.28;5036254;28;45295;-83
2021/09/16 02:52:24;;;;;;;;;5.50;5.50;;;;;19.39;62.49;101405.47;5036039;28;45168;-83
2021/09/16 02:54:50;;;;;;;;;7.75;6.75;;;;;19.40;63.07;101414.25;5035197;28;45499;-83
2021/09/16 02:57:16;;;;;;;;;8.00;8.00;;;;;19.39;62.98;101415.09;5035783;28;45239;-83
2021/09/16 02:59:41;;;;;;;;;7.25;7.25;;;;;19.37;63.08;101411.56;5050956;28;45288;-82
2021/09/16 03:02:07;;;;;;;;;6.00;6.00;;;;;19.34;62.57;101410.66;5035767;28;45238;-82
2021/09/16 03:04:33;;;;;;;;;9.75;7.75;;;;;19.33;63.30;101414.13;5035643;28;45515;-82
2021/09/16 03:06:58;;;;;;;;;6.25;6.00;;;;;19.30;63.37;101421.97;5037140;28;45339;-83
2021/09/16 03:09:24;;;;;;;;;6.50;6.25;;;;;19.28;63.34;101410.53;5039157;28;45413;-83
2021/09/16 03:11:50;;;;;;;;;13.25;9.25;;;;;19.31;62.84;101422.84;5038695;28;45263;-83
2021/09/16 03:14:16;;;;;;;;;8.50;7.25;;;;;19.31;63.28;101417.59;5039009;28;45376;-83
2021/09/16 03:16:42;;;;;;;;;6.25;5.00;;;;;19.31;63.38;101418.50;5038722;28;45348;-83
2021/09/16 03:19:08;;;;;;;;;8.25;6.50;;;;;19.31;63.45;101423.75;5039063;28;45370;-83
2021/09/16 03:21:34;;;;;;;;;9.75;7.25;;;;;19.32;63.31;101417.63;5038945;28;45915;-83
2021/09/16 03:24:00;;;;;;;;;7.75;7.75;;;;;19.31;63.30;101418.50;5054542;28;46257;-82
2021/09/16 03:26:26;;;;;;;;;8.00;7.00;;;;;19.32;63.42;101421.97;5054271;28;45249;-83
2021/09/16 03:28:53;;;;;;;;;8.50;8.00;;;;;19.34;63.43;101426.41;5038679;28;45291;-83
2021/09/16 03:31:19;;;;;;;;;7.75;7.00;;;;;19.32;63.31;101421.97;5039748;28;45271;-82
2021/09/16 03:33:45;;;;;;;;;7.25;6.75;;;;;19.33;63.13;101431.63;5052764;28;45630;-82
2021/09/16 03:36:10;;;;;;;;;6.00;6.00;;;;;19.33;63.15;101434.25;5040126;28;45492;-84
2021/09/16 03:38:36;;;;;;;;;7.50;6.50;;;;;19.33;63.71;101423.75;5038460;28;45346;-84
2021/09/16 03:41:01;;;;;;;;;6.75;6.75;;;;;19.34;62.97;101431.66;5039342;28;45334;-84
2021/09/16 03:43:27;;;;;;;;;5.00;5.00;;;;;19.40;62.85;101435.25;5038632;28;46300;-83
2021/09/16 03:45:53;;;;;;;;;9.00;7.75;;;;;19.37;63.17;101427.31;5038181;28;45332;-84
2021/09/16 03:48:19;;;;;;;;;8.00;8.00;;;;;19.36;63.05;101429.06;5038763;28;45308;-84
2021/09/16 03:50:44;;;;;;;;;7.25;5.50;;;;;19.34;63.29;101430.78;5038224;28;45488;-84
2021/09/16 03:53:10;;;;;;;;;9.50;7.00;;;;;19.36;63.23;101428.16;5053631;28;46219;-84
2021/09/16 03:55:36;;;;;;;;;7.25;6.75;;;;;19.34;62.90;101425.53;5037957;28;45330;-84
2021/09/16 03:58:02;;;;;;;;;6.25;5.00;;;;;19.34;62.90;101422.91;5038779;28;45378;-82
2021/09/16 04:00:27;;;;;;;;;8.00;8.00;;;;;19.32;63.24;101420.25;5038712;28;45389;-82
2021/09/16 04:02:53;;;;;;;;;7.00;6.50;;;;;19.29;62.76;101429.78;5037456;28;46487;-82
2021/09/16 04:05:18;;;;;;;;;8.25;6.25;;;;;19.25;62.98;101426.22;5037919;28;45402;-82
2021/09/16 04:07:44;;;;;;;;;10.75;8.50;;;;;19.26;63.08;101428.00;5037795;28;45272;-82
2021/09/16 04:10:17;;;;;;;;;7.25;6.75;;;;;19.23;62.28;101427.06;5038531;28;45598;-84
2021/09/16 04:12:43;;;;;;;;;6.50;6.25;;;;;19.19;62.89;101426.13;5037783;28;46202;-82
2021/09/16 04:15:09;;;;;;;;;5.00;4.25;;;;;19.17;63.31;101438.34;5038187;28;45265;-82
2021/09/16 04:17:35;;;;;;;;;7.00;5.75;;;;;19.17;62.87;101435.72;5037807;28;45434;-84
2021/09/16 04:20:00;;;;;;;;;6.00;5.75;;;;;19.13;63.28;101437.41;5038426;28;45432;-83
2021/09/16 04:22:26;;;;;;;;;5.75;5.50;;;;;19.14;63.27;101451.38;5037953;28;46505;-84
2021/09/16 04:24:52;;;;;;;;;6.75;5.75;;;;;19.15;63.31;101455.78;5037756;28;45417;-84
2021/09/16 04:27:17;;;;;;;;;6.25;5.75;;;;;19.18;62.95;101454.09;5036743;28;46020;-85
2021/09/16 04:29:43;;;;;;;;;11.00;9.00;;;;;19.16;63.29;101455.84;5038162;28;45507;-87
2021/09/16 04:32:10;;;;;;;;;6.50;6.25;;;;;19.18;63.15;101456.72;5037766;28;46261;-83
2021/09/16 04:34:35;;;;;;;;;7.00;6.00;;;;;19.16;62.54;101458.47;5037537;28;45259;-83
2021/09/16 04:37:01;;;;;;;;;8.25;6.00;;;;;19.17;63.13;101462.84;5037570;28;45520;-83
2021/09/16 04:39:27;;;;;;;;;9.00;6.50;;;;;19.14;62.98;101447.03;5037944;28;45331;-84
2021/09/16 04:41:52;;;;;;;;;6.00;5.75;;;;;19.16;62.86;101445.34;5037498;28;45525;-84
2021/09/16 04:44:18;;;;;;;;;11.00;9.00;;;;;19.15;62.68;101446.19;5037575;28;45493;-84
2021/09/16 04:46:43;;;;;;;;;8.50;6.75;;;;;19.15;62.63;101448.81;5037252;28;45436;-84
2021/09/16 04:49:09;;;;;;;;;11.00;8.75;;;;;19.14;62.57;101444.41;5053209;28;45499;-84
2021/09/16 04:51:35;;;;;;;;;8.50;6.75;;;;;19.18;62.99;101451.47;5052175;28;47465;-84
2021/09/16 04:54:00;;;;;;;;;9.75;8.00;;;;;19.18;62.79;101437.47;5053224;28;45359;-85
2021/09/16 04:56:26;;;;;;;;;10.00;9.50;;;;;19.21;63.10;101444.53;5036513;28;45429;-87
2021/09/16 04:58:52;;;;;;;;;9.50;9.50;;;;;19.23;62.50;101443.69;5037608;28;45237;-85
2021/09/16 05:01:17;;;;;;;;;7.50;6.75;;;;;19.27;62.51;101442.03;5036959;28;46623;-85
2021/09/16 05:03:43;;;;;;;;;10.00;9.25;;;;;19.25;62.73;101443.75;5052744;28;45433;-85
2021/09/16 05:06:09;;;;;;;;;8.25;7.25;;;;;19.21;62.30;101444.53;5037203;28;45335;-83
2021/09/16 05:08:34;;;;;;;;;7.50;6.50;;;;;19.20;62.89;101448.00;5025179;28;45421;-83
2021/09/16 05:11:00;;;;;;;;;9.75;8.50;;;;;19.17;62.61;101449.72;5024814;28;45417;-83
2021/09/16 05:13:26;;;;;;;;;9.75;8.50;;;;;19.17;62.89;101452.31;5034873;28;45420;-83
2021/09/16 05:15:51;;;;;;;;;7.75;6.25;;;;;19.16;63.03;101455.84;5034524;28;45471;-84
2021/09/16 05:18:17;;;;;;;;;10.25;8.00;;;;;19.20;62.50;101456.78;5043584;28;45214;-83
2021/09/16 05:20:45;;;;;;;;;13.50;10.00;;;;;19.21;62.55;101457.66;5043727;28;45422;-83
2021/09/16 05:23:11;;;;;;;;;10.75;7.50;;;;;19.22;62.56;101467.31;5021206;28;45757;-82
2021/09/16 05:25:36;;;;;;;;;7.00;6.00;;;;;19.22;62.13;101460.28;5022647;28;45371;-89
2021/09/16 05:28:02;;;;;;;;;9.00;8.50;;;;;19.25;61.89;101464.75;5033522;28;45977;-83
2021/09/16 05:30:29;;;;;;;;;11.50;8.25;;;;;19.24;62.28;101468.22;5039561;28;49392;-85
2021/09/16 05:32:55;;;;;;;;;8.25;6.75;;;;;19.22;62.66;101465.53;5031143;28;45727;-86
2021/09/16 05:35:21;;;;;;;;;12.75;9.00;;;;;19.21;62.70;101476.94;5025655;28;45464;-85
2021/09/16 05:37:46;;;;;;;;;9.00;6.25;;;;;19.18;62.95;101480.34;5034504;28;45500;-86
2021/09/16 05:40:13;;;;;;;;;10.00;10.00;;;;;19.15;63.18;101469.81;5038058;28;45363;-89
2021/09/16 05:42:38;;;;;;;;;8.25;7.25;;;;;19.17;63.06;101480.34;5039174;28;45484;-88
2021/09/16 05:45:08;;;;;;;;;8.25;8.25;;;;;19.16;63.27;101474.22;5031619;28;45335;-85
2021/09/16 05:47:34;;;;;;;;;13.25;8.75;;;;;19.16;63.24;101481.19;5023445;28;45653;-85
2021/09/16 05:49:59;;;;;;;;;9.50;8.25;;;;;19.15;62.68;101485.56;5024637;28;45397;-85
2021/09/16 05:52:26;;;;;;;;;11.75;11.00;;;;;19.15;63.05;101482.03;5036444;28;45374;-87
2021/09/16 05:54:51;;;;;;;;;13.00;9.50;;;;;19.13;63.50;101478.50;5039223;28;45197;-88
2021/09/16 05:57:17;;;;;;;;;8.75;7.50;;;;;19.13;63.51;101475.88;5053099;28;45319;-81
2021/09/16 05:59:43;;;;;;;;;13.00;10.25;;;;;19.13;63.32;101471.53;5036193;28;45341;-85
2021/09/16 06:02:08;;;;;;;;;11.50;11.50;;;;;19.17;62.97;101472.47;5053144;28;45426;-85
2021/09/16 06:04:34;;;;;;;;;8.25;6.75;;;;;19.18;63.21;101482.09;5037986;28;45482;-87
2021/09/16 06:07:03;;;;;;;;;7.25;6.50;;;;;19.17;62.99;101485.59;5037144;28;45621;-84
2021/09/16 06:09:30;;;;;;;;;7.75;7.75;;;;;19.22;63.02;101485.69;5036751;28;45657;-85
2021/09/16 06:11:56;;;;;;;;;6.00;5.00;;;;;19.24;62.97;101481.34;5044626;28;45567;-87
2021/09/16 06:14:21;;;;;;;;;9.00;6.00;;;;;19.29;62.29;101491.09;5046521;28;45434;-87
2021/09/16 06:16:47;;;;;;;;;9.00;7.50;;;;;19.32;62.60;101490.25;5044992;28;44816;-87
2021/09/16 06:19:13;;;;;;;;;7.00;7.00;;;;;19.32;62.67;101499.03;5057662;28;46944;-87
2021/09/16 06:21:39;;;;;;;;;6.50;5.50;;;;;19.32;62.44;101508.63;5037918;28;45477;-86
2021/09/16 06:24:05;;;;;;;;;7.00;6.50;;;;;19.30;62.11;101500.72;5054130;28;45362;-86
2021/09/16 06:26:31;;;;;;;;;7.00;4.25;;;;;19.36;61.62;101510.47;5037799;28;45352;-86
2021/09/16 06:28:56;;;;;;;;;4.75;3.25;;;;;19.36;62.00;101507.84;5037691;28;45481;-87
2021/09/16 06:31:22;;;;;;;;;7.00;6.00;;;;;19.37;61.28;101512.25;5037929;28;45338;-86
2021/09/16 06:33:48;;;;;;;;;7.25;7.25;;;;;19.39;61.90;101513.13;5037369;28;45407;-83
2021/09/16 06:36:13;;;;;;;;;8.50;5.00;;;;;19.41;61.99;101527.19;5036644;28;45545;-84
2021/09/16 06:38:39;;;;;;;;;6.50;5.00;;;;;19.43;61.14;101508.84;5028380;28;45851;-81
2021/09/16 06:41:05;;;;;;;;;4.25;3.50;;;;;19.47;61.21;101514.19;5035348;28;45306;-83
2021/09/16 06:43:31;;;;;;;;;4.00;4.00;;;;;19.47;60.60;101519.44;5053817;28;45590;-85
2021/09/16 06:45:57;;;;;;;;;5.00;5.00;;;;;19.48;60.78;101520.31;5037807;28;45331;-84
2021/09/16 06:48:23;;;;;;;;;8.00;5.50;;;;;19.51;60.80;101523.00;5039594;28;46116;-84
2021/09/16 06:50:48;;;;;;;;;6.75;6.75;;;;;19.52;60.55;101521.25;5040077;28;45554;-85
2021/09/16 06:53:14;;;;;;;;;7.25;5.00;;;;;19.49;60.69;101522.97;5047588;28;44892;-86
2021/09/16 06:55:39;;;;;;;;;7.75;6.00;;;;;19.52;60.70;101521.25;5059239;28;45541;-86
2021/09/16 06:58:05;;;;;;;;;6.25;6.25;;;;;19.50;60.05;101516.00;5039864;28;46011;-86
2021/09/16 07:00:31;;;;;;;;;8.00;6.50;;;;;19.51;60.73;101515.13;5039966;28;45294;-83
2021/09/16 07:02:56;;;;;;;;;8.50;5.00;;;;;19.53;60.27;101515.16;5039228;28;45452;-84
2021/09/16 07:05:22;;;;;;;;;7.75;6.25;;;;;19.53;60.68;101526.56;5040492;28;45530;-84
2021/09/16 07:07:48;;;;;;;;;9.25;8.00;;;;;19.52;60.65;101518.63;5054333;28;47952;-87
2021/09/16 07:10:13;;;;;;;;;17.25;13.75;;;;;19.52;60.07;101514.28;5054836;28;45441;-86
2021/09/16 07:12:39;;;;;;;;;8.75;8.25;;;;;19.54;60.06;101519.56;5052728;28;45414;-85
2021/09/16 07:15:06;;;;;;;;;7.75;7.75;;;;;19.59;60.70;101525.78;5036139;28;45628;-85
2021/09/16 07:17:31;;;;;;;;;11.25;8.25;;;;;19.58;60.42;101524.88;5036438;28;47457;-83
2021/09/16 07:19:57;;;;;;;;;6.75;5.75;;;;;19.58;60.01;101527.50;5039187;28;45352;-85
2021/09/16 07:22:23;;;;;;;;;7.50;5.25;;;;;19.58;59.93;101529.28;5027526;28;45334;-87
2021/09/16 07:24:49;;;;;;;;;3.75;3.75;;;;;19.57;60.06;101527.50;5035614;28;45527;-89
2021/09/16 07:27:14;;;;;;;;;8.00;7.00;;;;;19.56;59.70;101534.47;5024604;28;46230;-85
2021/09/16 07:29:40;;;;;;;;;6.00;5.75;;;;;19.57;60.31;101535.38;5058538;28;45363;-86
2021/09/16 07:32:06;;;;;;;;;8.25;5.75;;;;;19.61;59.66;101542.44;5038676;28;45547;-86
2021/09/16 07:34:32;;;;;;;;;6.25;5.50;;;;;19.63;59.73;101543.38;5038811;28;45262;-85
2021/09/16 07:36:58;;;;;;;;;5.50;5.50;;;;;19.61;59.63;101545.97;5053735;28;48042;-85
2021/09/16 07:39:23;;;;;;;;;5.00;5.00;;;;;19.65;59.98;101550.41;5038687;28;45366;-85
2021/09/16 07:41:50;;;;;;;;;7.50;7.00;;;;;19.67;59.33;101547.84;5037716;28;45420;-85
2021/09/16 07:44:17;;;;;;;;;7.00;4.75;;;;;19.68;59.56;101541.72;5039122;28;45351;-87
2021/09/16 07:46:44;;;;;;;;;7.25;5.00;;;;;19.71;59.57;101540.88;5033159;28;45394;-87
2021/09/16 07:49:10;;;;;;;;;5.50;4.75;;;;;19.72;59.25;101546.16;5038049;28;45781;-87
2021/09/16 07:51:35;;;;;;;;;5.00;5.00;;;;;19.78;59.09;101548.91;5038504;28;45354;-87
2021/09/16 07:54:02;;;;;;;;;7.00;6.25;;;;;19.76;59.53;101539.25;5052676;28;45283;-87
2021/09/16 07:56:28;;;;;;;;;7.00;5.50;;;;;19.84;59.22;101549.88;5036905;28;47937;-87
2021/09/16 07:58:53;;;;;;;;;8.00;6.00;;;;;19.83;59.18;101546.38;5040093;28;45391;-88
2021/09/16 08:01:19;;;;;;;;;5.75;5.75;;;;;19.86;59.16;101550.81;5037575;28;45235;-85
2021/09/16 08:03:45;;;;;;;;;6.50;5.50;;;;;19.88;58.21;101551.75;5036921;28;45266;-87
2021/09/16 08:06:17;;;;;;;;;6.00;4.25;;;;;19.86;58.83;101540.31;5036410;28;47638;-87
2021/09/16 08:08:43;;;;;;;;;7.00;7.00;;;;;19.89;58.82;101549.13;5037932;28;45779;-87
2021/09/16 08:11:09;;;;;;;;;8.50;6.75;;;;;19.87;58.74;101547.34;5038371;28;45249;-87
2021/09/16 08:13:35;;;;;;;;;10.50;7.00;;;;;19.90;59.09;101547.41;5052816;28;45438;-87
2021/09/16 08:16:00;;;;;;;;;4.50;3.25;;;;;19.96;58.46;101560.66;5053262;28;48050;-87
2021/09/16 08:18:26;;;;;;;;;6.50;6.00;;;;;19.93;58.33;101555.31;5037866;28;45346;-87
2021/09/16 08:20:53;;;;;;;;;7.50;5.00;;;;;19.95;58.00;101556.25;5037754;28;45334;-85
2021/09/16 08:23:21;;;;;;;;;4.75;4.00;;;;;19.95;57.42;101567.66;5037583;28;45454;-86
2021/09/16 08:25:47;;;;;;;;;5.25;5.25;;;;;19.97;57.67;101566.81;5051734;28;45559;-85
2021/09/16 08:28:13;;;;;;;;;4.00;4.00;;;;;19.95;58.15;101561.50;5037363;28;46356;-85
2021/09/16 08:30:40;;;;;;;;;5.75;3.25;;;;;20.00;57.96;101559.84;5037317;28;45348;-87
2021/09/16 08:33:06;;;;;;;;;3.25;3.25;;;;;20.00;57.37;101553.69;5037515;28;45600;-87
2021/09/16 08:35:33;;;;;;;;;4.50;2.75;;;;;20.02;56.74;101555.53;5037285;28;46466;-86
2021/09/16 08:37:59;;;;;;;;;2.00;2.00;;;;;20.00;56.27;101548.44;5036102;28;45759;-86
2021/09/16 08:40:25;;;;;;;;;4.00;4.00;;;;;20.05;55.77;101549.41;5037679;28;45412;-86
2021/09/16 08:42:51;;;;;;;;;1.00;1.00;;;;;20.05;55.21;101545.03;5053081;28;45591;-88
2021/09/16 08:45:20;;;;;;;;;3.50;3.50;;;;;20.08;54.53;101547.72;5052874;28;47917;-86
2021/09/16 08:47:48;;;;;;;;;1.00;1.00;;;;;20.09;54.31;101546.88;5037448;28;45613;-85
2021/09/16 08:50:16;;;;;;;;;2.00;2.00;;;;;20.08;54.13;101549.47;5045231;28;45270;-87
2021/09/16 08:52:44;;;;;;;;;2.25;2.25;;;;;20.14;54.24;101551.34;5048965;28;45389;-86
2021/09/16 08:55:13;;;;;;;;;2.00;2.00;;;;;20.14;53.79;101549.56;5039713;28;46139;-86
2021/09/16 08:57:41;;;;;;;;;1.00;1.00;;;;;20.21;53.47;101555.81;5050538;28;45562;-87
2021/09/16 09:00:13;;;;;;;;;2.00;2.00;;;;;20.24;53.56;101561.16;5051548;28;45604;-87
2021/09/16 09:02:39;;;;;;;;;1.50;1.50;;;;;20.23;53.21;101559.38;5035590;28;45371;-87
2021/09/16 09:05:08;;;;;;;;;2.50;2.00;;;;;20.26;53.34;101568.19;5037076;28;46908;-91
2021/09/16 09:07:44;;;;;;;;;6.75;4.75;;;;;20.30;53.26;101560.38;5039935;28;45279;-90
2021/09/16 09:10:31;;;;;;;;;3.25;2.25;;;;;20.29;53.98;101555.97;5039513;28;45335;-92
2021/09/16 09:12:57;;;;;;;;;3.00;3.00;;;;;20.33;53.22;101563.94;5041185;28;45286;-92
2021/09/16 09:15:24;;;;;;;;;5.00;4.25;;;;;20.38;53.78;101567.50;5060199;28;47829;-90
2021/09/16 09:18:11;;;;;;;;;3.25;3.25;;;;;20.37;53.18;101562.22;5054512;28;45520;-89
2021/09/16 09:20:57;;;;;;;;;5.25;3.75;;;;;20.47;53.98;101574.66;5055739;28;45257;-92
2021/09/16 09:23:34;;;;;;;;;4.00;4.00;;;;;20.44;53.00;101571.09;5038023;28;45505;-90
2021/09/16 09:26:19;;;;;;;;;3.75;3.75;;;;;20.48;53.06;101575.53;5039856;28;46809;-91
2021/09/16 09:28:45;;;;;;;;;3.25;3.00;;;;;20.51;53.55;101571.22;5040641;28;45845;-92
2021/09/16 09:31:21;;;;;;;;;4.50;4.00;;;;;20.52;53.77;101575.59;5051721;28;45355;-92
2021/09/16 09:33:47;;;;;;;;;8.50;5.00;;;;;20.55;53.26;101573.03;5039633;28;45477;-95
2021/09/16 09:36:18;;;;;;;;;4.00;2.75;;;;;20.56;52.58;101572.19;5019411;28;45414;-96
2021/09/16 09:38:48;;;;;;;;;4.75;3.50;;;;;20.59;52.41;101571.31;5040902;28;45315;-89
2021/09/16 09:41:24;;;;;;;;;7.50;5.00;;;;;20.59;52.72;101568.69;5063261;28;45354;-89
2021/09/16 09:43:49;;;;;;;;;4.75;3.00;;;;;20.58;53.26;101566.94;5055872;28;45603;-90
2021/09/16 09:46:17;;;;;;;;;3.25;3.25;;;;;20.60;52.51;101566.97;5038331;28;46069;-88
2021/09/16 09:48:58;;;;;;;;;4.50;4.50;;;;;20.68;52.15;101571.47;5039441;28;45912;-89
2021/09/16 09:51:43;;;;;;;;;6.00;5.75;;;;;20.70;51.62;101569.75;5042087;28;45354;-90
2021/09/16 09:54:17;;;;;;;;;6.25;4.25;;;;;20.70;52.66;101572.38;5040338;28;45612;-88
2021/09/16 09:57:00;;;;;;;;;5.75;5.75;;;;;20.71;52.03;101566.25;5043130;28;47116;-88
2021/09/16 09:59:26;;;;;;;;;4.00;4.00;;;;;20.78;50.94;101569.03;5038263;28;45482;-90
2021/09/16 10:02:03;;;;;;;;;4.00;4.00;;;;;20.84;51.42;101569.09;5037530;28;45269;-91
2021/09/16 10:04:31;;;;;;;;;5.75;5.75;;;;;20.84;51.95;101564.72;5034925;28;45265;-89
2021/09/16 10:06:58;;;;;;;;;5.25;4.00;;;;;20.88;52.00;101573.56;5038867;28;45430;-89
2021/09/16 10:09:24;;;;;;;;;8.50;5.00;;;;;20.89;51.83;101562.19;5028255;28;45656;-90
2021/09/16 10:11:52;;;;;;;;;5.75;5.25;;;;;20.93;51.94;101565.72;5049294;28;44742;-92
2021/09/16 10:14:19;;;;;;;;;13.00;13.00;;;;;20.94;51.92;101568.38;5050561;28;45193;-92
2021/09/16 10:16:46;;;;;;;;;28.25;25.25;;;;;20.96;51.34;101566.66;5043071;28;46177;-94
2021/09/16 10:19:13;;;;;;;;;8.25;6.75;;;;;20.96;51.64;101557.84;5041182;28;45824;-93
2021/09/16 10:21:39;;;;;;;;;5.50;5.50;;;;;21.00;51.42;101557.03;5040483;28;45341;-94
2021/09/16 10:24:07;;;;;;;;;5.50;5.00;;;;;21.03;51.23;101559.72;5039552;28;45462;-90
2021/09/16 10:26:34;;;;;;;;;7.25;4.00;;;;;;;;5041355;28;47056;-88
2021/09/16 10:29:04;;;;;;;;;3.50;3.50;;;;;21.11;51.40;101558.06;5042913;28;45305;-95
2021/09/16 10:31:30;;;;;;;;;3.50;3.50;;;;;21.19;51.41;101547.66;5040560;28;45235;-93
2021/09/16 10:33:56;;;;;;;;;4.00;3.00;;;;;21.23;51.05;101543.28;5047818;28;45241;-94
2021/09/16 10:36:22;;;;;;;;;3.00;3.00;;;;;21.26;51.45;101546.84;5051047;28;47928;-94
2021/09/16 10:38:51;;;;;;;;;4.75;4.00;;;;;21.27;50.69;101540.72;5057314;28;45187;-93
2021/09/16 10:41:34;;;;;;;;;3.75;3.75;;;;;21.33;50.69;101543.41;5055799;28;45374;-91
2021/09/16 10:43:59;;;;;;;;;7.00;6.00;;;;;21.37;50.71;101548.72;5072394;28;45351;-87
2021/09/16 10:46:25;;;;;;;;;8.00;6.00;;;;;21.42;50.33;101547.03;5053842;28;45403;-91
2021/09/16 10:48:51;;;;;;;;;2.50;2.50;;;;;21.45;49.76;101549.69;5051252;28;45290;-92
2021/09/16 10:51:47;;;;;;;;;4.25;4.25;;;;;21.53;49.90;101553.31;5043654;28;45283;-91
2021/09/16 10:54:34;;;;;;;;;3.00;3.00;;;;;21.59;50.20;101540.22;5020006;28;45449;-93
2021/09/16 10:57:10;;;;;;;;;5.25;4.25;;;;;21.64;49.12;101543.81;5055926;28;47103;-90
2021/09/16 10:59:51;;;;;;;;;3.00;2.00;;;;;21.65;48.97;101549.97;5042060;28;45621;-90
2021/09/16 11:02:22;;;;;;;;;8.25;6.00;;;;;21.60;48.23;101547.28;5041690;28;45324;-94
2021/09/16 11:04:54;;;;;;;;;4.75;3.25;;;;;21.57;48.43;101556.88;5056980;28;45252;-94
2021/09/16 11:07:35;;;;;;;;;4.75;4.75;;;;;21.55;48.42;101548.06;5045161;28;45445;-94
2021/09/16 11:12:51;;;;;;;;;4.00;4.00;;;;;21.58;49.34;101540.19;5046300;28;45382;-94
2021/09/16 11:15:23;;;;;;;;;4.50;2.75;;;;;21.61;49.44;101535.88;5058098;28;45196;-90
2021/09/16 11:17:49;;;;;;;;;5.00;4.50;;;;;21.61;49.56;101535.88;5047544;28;45450;-90
2021/09/16 11:20:15;;;;;;;;;4.75;4.00;;;;;21.67;49.27;101537.69;5056260;28;44878;-94
2021/09/16 11:22:41;;;;;;;;;7.25;5.00;;;;;21.67;48.96;101536.78;5055221;28;44800;-93
2021/09/16 11:25:09;;;;;;;;;8.25;4.75;;;;;21.63;49.36;101536.78;5054509;28;44962;-91
2021/09/16 11:27:39;;;;;;;;;1.25;1.25;;;;;21.72;48.79;101532.47;5046953;28;45842;-94